Time;durP1;ratioP1;P1;durP2;ratioP2;P2;SDS_P1;SDS_P2;PMS_P1;PMS_P2;Temp;Humidity;BMP_temperature;BMP_pressure;BME280_temperature;BME280_humidity;BME280_pressure;Samples;Min_cycle;Max_cycle;Signal;HPM_P1;HPM_P2
2022/06/05 00:01:22;;;;;;;5.50;4.80;;;19.90;99.90;;;;;;5033105;28;20210;-61
2022/06/05 00:04:03;;;;;;;6.43;4.15;;;19.90;99.90;;;;;;5033058;28;20206;-62
2022/06/05 00:06:37;;;;;;;6.60;4.40;;;20.00;99.90;;;;;;5032994;28;20248;-61
2022/06/05 00:09:13;;;;;;;5.38;4.82;;;20.00;99.90;;;;;;5033164;28;20206;-60
2022/06/05 00:11:49;;;;;;;8.00;4.63;;;19.90;99.90;;;;;;5032794;28;20253;-60
2022/06/05 00:14:15;;;;;;;4.82;4.32;;;20.00;99.90;;;;;;5032811;28;20202;-61
2022/06/05 00:16:42;;;;;;;4.72;4.25;;;20.00;99.90;;;;;;5032287;28;20554;-60
2022/06/05 00:19:09;;;;;;;5.53;4.97;;;20.00;99.90;;;;;;5032740;28;20217;-62
2022/06/05 00:21:37;;;;;;;5.18;4.65;;;20.00;99.90;;;;;;5032694;28;20221;-59
2022/06/05 00:24:04;;;;;;;5.10;4.63;;;20.00;99.90;;;;;;5032509;28;20210;-61
2022/06/05 00:26:41;;;;;;;5.20;4.70;;;20.00;99.90;;;;;;5032222;28;20221;-60
2022/06/05 00:29:18;;;;;;;6.20;4.90;;;20.00;99.90;;;;;;5032438;28;20248;-61
2022/06/05 00:31:53;;;;;;;5.63;5.00;;;20.00;99.90;;;;;;5032489;28;20263;-60
2022/06/05 00:34:20;;;;;;;7.10;4.90;;;20.00;99.90;;;;;;5032617;28;20255;-60
2022/06/05 00:37:03;;;;;;;4.80;4.40;;;20.00;99.90;;;;;;5032150;28;20232;-60
2022/06/05 00:39:41;;;;;;;6.53;4.70;;;20.00;99.90;;;;;;5032254;28;20213;-59
2022/06/05 00:42:10;;;;;;;5.38;4.80;;;20.00;99.90;;;;;;5032463;28;20279;-61
2022/06/05 00:44:40;;;;;;;6.93;5.07;;;20.00;99.90;;;;;;5032367;28;20210;-61
2022/06/05 00:47:09;;;;;;;5.32;4.80;;;20.00;99.90;;;;;;5031932;28;20280;-60
2022/06/05 00:49:42;;;;;;;5.78;4.88;;;20.00;99.90;;;;;;5032179;28;20210;-61
2022/06/05 00:52:13;;;;;;;5.20;4.80;;;20.00;99.90;;;;;;5032031;28;20206;-60
2022/06/05 00:54:40;;;;;;;5.20;4.70;;;20.00;99.90;;;;;;5032225;28;20217;-61
2022/06/05 00:57:09;;;;;;;5.72;5.10;;;20.00;99.90;;;;;;5032005;28;20222;-60
2022/06/05 00:59:37;;;;;;;5.00;4.50;;;20.10;99.90;;;;;;5032086;28;20213;-60
2022/06/05 01:02:04;;;;;;;5.80;5.30;;;20.10;99.90;;;;;;5032122;28;20297;-61
2022/06/05 01:04:33;;;;;;;5.10;4.70;;;20.00;99.90;;;;;;5031925;28;20213;-61
2022/06/05 01:07:00;;;;;;;4.90;4.50;;;20.10;99.90;;;;;;5031939;28;20500;-60
2022/06/05 01:09:28;;;;;;;5.43;4.93;;;20.00;99.90;;;;;;5032036;28;20206;-61
2022/06/05 01:12:07;;;;;;;6.32;5.38;;;19.90;99.90;;;;;;5031956;28;20210;-61
2022/06/05 01:14:42;;;;;;;5.68;5.05;;;19.90;99.90;;;;;;5031916;28;20198;-61
2022/06/05 01:17:17;;;;;;;5.65;5.15;;;20.00;99.90;;;;;;5031469;28;20648;-60
2022/06/05 01:19:53;;;;;;;6.55;5.78;;;20.00;99.90;;;;;;5032232;28;20209;-60
2022/06/05 01:22:50;;;;;;;5.93;5.10;;;19.90;99.90;;;;;;5034283;28;20214;-60
2022/06/05 01:25:44;;;;;;;6.03;5.43;;;20.00;99.90;;;;;;5038351;28;20556;-61
2022/06/05 01:28:15;;;;;;;8.07;5.72;;;20.00;99.90;;;;;;5038306;28;20245;-60
2022/06/05 01:30:48;;;;;;;6.65;5.82;;;20.10;99.90;;;;;;5038461;28;20221;-60
2022/06/05 01:33:22;;;;;;;6.40;5.72;;;20.10;99.90;;;;;;5038317;28;20222;-60
2022/06/05 01:35:57;;;;;;;6.10;5.60;;;20.10;99.90;;;;;;5038008;28;20621;-61
2022/06/05 01:38:31;;;;;;;7.25;5.60;;;20.10;99.90;;;;;;5038419;28;20237;-61
2022/06/05 01:41:11;;;;;;;6.03;5.53;;;20.10;99.90;;;;;;5038451;28;20315;-60
2022/06/05 01:43:42;;;;;;;6.68;6.00;;;20.10;99.90;;;;;;5038230;28;20625;-60
2022/06/05 01:46:13;;;;;;;7.53;5.55;;;20.00;99.90;;;;;;5038024;28;20210;-60
2022/06/05 01:48:43;;;;;;;6.00;4.78;;;19.90;99.90;;;;;;5038542;28;20234;-60
2022/06/05 01:51:17;;;;;;;6.75;6.15;;;19.80;99.90;;;;;;5038540;28;20213;-60
2022/06/05 01:53:47;;;;;;;7.53;6.07;;;19.80;99.90;;;;;;5038349;28;20222;-61
2022/06/05 01:56:19;;;;;;;8.05;5.35;;;19.80;99.90;;;;;;5038152;28;20228;-60
2022/06/05 01:58:50;;;;;;;9.88;5.43;;;19.80;99.90;;;;;;5038078;28;20226;-60
2022/06/05 02:01:21;;;;;;;8.00;5.82;;;19.80;99.90;;;;;;5038512;28;20206;-60
2022/06/05 02:03:52;;;;;;;6.55;6.03;;;19.80;99.90;;;;;;5038469;28;20288;-60
2022/06/05 02:06:26;;;;;;;6.82;6.22;;;19.80;99.90;;;;;;5038206;28;20256;-60
2022/06/05 02:08:59;;;;;;;7.53;6.22;;;19.60;99.90;;;;;;5038450;28;20605;-60
2022/06/05 02:11:29;;;;;;;8.38;6.07;;;19.50;99.90;;;;;;5038329;28;20217;-60
2022/06/05 02:13:59;;;;;;;7.90;6.30;;;19.50;99.90;;;;;;5038248;28;20276;-60
2022/06/05 02:16:28;;;;;;;6.47;5.88;;;19.50;99.90;;;;;;5037889;28;20213;-61
2022/06/05 02:18:55;;;;;;;6.82;6.10;;;19.50;99.90;;;;;;5038045;28;20230;-61
2022/06/05 02:21:21;;;;;;;6.50;5.90;;;19.60;99.90;;;;;;5038045;28;20206;-60
2022/06/05 02:23:48;;;;;;;9.70;6.20;;;19.60;99.90;;;;;;5037841;28;20205;-60
2022/06/05 02:26:15;;;;;;;6.65;6.05;;;19.60;99.90;;;;;;5037829;28;20205;-61
2022/06/05 02:28:43;;;;;;;6.80;6.10;;;19.60;99.90;;;;;;5037708;28;20238;-61
2022/06/05 02:31:22;;;;;;;7.90;6.53;;;19.70;99.90;;;;;;5037921;28;20202;-61
2022/06/05 02:33:58;;;;;;;7.50;6.35;;;19.70;99.90;;;;;;5036428;28;20229;-61
2022/06/05 02:36:39;;;;;;;9.07;6.60;;;19.60;99.90;;;;;;5034439;28;20210;-61
2022/06/05 02:39:17;;;;;;;8.48;6.22;;;19.60;99.90;;;;;;5034871;28;20210;-59
2022/06/05 02:41:50;;;;;;;6.93;6.32;;;19.60;99.90;;;;;;5034843;28;20210;-61
2022/06/05 02:44:29;;;;;;;6.63;6.03;;;19.50;99.90;;;;;;5034788;28;20202;-61
2022/06/05 02:47:16;;;;;;;6.80;6.15;;;19.40;99.90;;;;;;5034395;28;20230;-59
2022/06/05 02:49:48;;;;;;;8.77;6.25;;;19.40;99.90;;;;;;5034667;28;20593;-63
2022/06/05 02:52:15;;;;;;;6.88;6.28;;;19.30;99.90;;;;;;5034386;28;20210;-61
2022/06/05 02:54:46;;;;;;;6.75;6.03;;;19.20;99.90;;;;;;5034293;28;20237;-61
2022/06/05 02:57:14;;;;;;;6.82;6.13;;;19.20;99.90;;;;;;5034046;28;20234;-61
2022/06/05 02:59:42;;;;;;;7.95;6.72;;;19.10;99.90;;;;;;5034541;28;20652;-61
2022/06/05 03:04:53;;;;;;;8.38;6.55;;;19.30;99.90;;;;;;5034404;28;20209;-62
2022/06/05 03:07:19;;;;;;;7.07;6.38;;;19.30;99.90;;;;;;5033798;28;20741;-62
2022/06/05 03:09:46;;;;;;;7.13;6.45;;;19.50;99.90;;;;;;5034321;28;20206;-61
2022/06/05 03:12:13;;;;;;;9.05;6.47;;;19.60;99.90;;;;;;5034288;28;20209;-60
2022/06/05 03:14:41;;;;;;;7.18;6.50;;;19.60;99.90;;;;;;5034146;28;20234;-61
2022/06/05 03:17:08;;;;;;;7.30;6.70;;;19.60;99.90;;;;;;5033725;28;20241;-61
2022/06/05 03:19:35;;;;;;;8.23;7.30;;;19.60;99.90;;;;;;5033980;28;20210;-60
2022/06/05 03:22:01;;;;;;;8.32;6.07;;;19.70;99.90;;;;;;5033805;28;20692;-61
2022/06/05 03:24:28;;;;;;;6.10;5.53;;;19.70;99.90;;;;;;5034138;28;20646;-61
2022/06/05 03:26:55;;;;;;;6.85;6.25;;;19.80;99.90;;;;;;5033525;28;20284;-61
2022/06/05 03:29:21;;;;;;;8.80;5.90;;;19.80;99.90;;;;;;5034052;28;20213;-62
2022/06/05 03:31:50;;;;;;;6.57;5.93;;;19.80;99.90;;;;;;5034048;28;20221;-62
2022/06/05 03:34:17;;;;;;;6.55;5.50;;;19.80;99.90;;;;;;5034145;28;20226;-61
2022/06/05 03:36:44;;;;;;;7.28;5.97;;;19.70;99.90;;;;;;5033160;28;20749;-62
2022/06/05 03:39:11;;;;;;;7.35;5.55;;;19.70;99.90;;;;;;5033776;28;20214;-61
2022/06/05 03:41:38;;;;;;;7.78;5.90;;;19.80;99.90;;;;;;5033561;28;20293;-61
2022/06/05 03:44:05;;;;;;;6.38;5.78;;;19.70;99.90;;;;;;5033513;28;20213;-62
2022/06/05 03:46:35;;;;;;;6.20;5.60;;;19.60;99.90;;;;;;5032588;28;20250;-61
2022/06/05 03:49:03;;;;;;;6.47;5.88;;;19.60;99.90;;;;;;5033228;28;20701;-61
2022/06/05 03:51:30;;;;;;;6.38;5.32;;;19.70;99.90;;;;;;5033245;28;20383;-62
2022/06/05 03:53:56;;;;;;;6.70;6.00;;;19.80;99.90;;;;;;5033452;28;20253;-63
2022/06/05 03:56:25;;;;;;;5.95;5.38;;;19.80;99.90;;;;;;5033088;28;20210;-62
2022/06/05 03:58:52;;;;;;;6.53;5.82;;;19.80;99.90;;;;;;5033163;28;20226;-61
2022/06/05 04:01:21;;;;;;;6.28;5.30;;;19.80;99.90;;;;;;5033092;28;20206;-61
2022/06/05 04:03:48;;;;;;;7.32;5.95;;;19.90;99.90;;;;;;5032891;28;20202;-62
2022/06/05 04:06:21;;;;;;;7.63;6.30;;;20.00;99.90;;;;;;5033002;28;20210;-62
2022/06/05 04:08:49;;;;;;;6.32;5.72;;;20.10;99.90;;;;;;5032921;28;20725;-60
2022/06/05 04:11:18;;;;;;;6.63;5.88;;;20.20;99.90;;;;;;5033112;28;20217;-61
2022/06/05 04:13:45;;;;;;;5.60;5.15;;;20.20;99.90;;;;;;5032850;28;20230;-61
2022/06/05 04:16:13;;;;;;;6.35;5.75;;;20.10;99.90;;;;;;5032450;28;20206;-61
2022/06/05 04:18:40;;;;;;;5.78;5.18;;;20.10;99.90;;;;;;5032794;28;20222;-60
2022/06/05 04:21:08;;;;;;;6.10;5.50;;;20.20;99.90;;;;;;5032885;28;20213;-61
2022/06/05 04:23:36;;;;;;;7.07;5.93;;;20.30;99.90;;;;;;5032760;28;20309;-62
2022/06/05 04:26:06;;;;;;;6.90;5.57;;;20.50;99.90;;;;;;5032491;28;20210;-61
2022/06/05 04:28:33;;;;;;;5.72;5.30;;;20.40;99.90;;;;;;5032748;28;20642;-62
2022/06/05 04:31:00;;;;;;;8.50;6.68;;;20.30;99.90;;;;;;5032489;28;20214;-61
2022/06/05 04:33:27;;;;;;;7.22;6.55;;;20.30;99.90;;;;;;5032372;28;20218;-60
2022/06/05 04:35:53;;;;;;;7.60;6.72;;;20.30;99.90;;;;;;5032527;28;20209;-61
2022/06/05 04:38:20;;;;;;;9.77;7.00;;;20.30;99.90;;;;;;5032054;28;20717;-62
2022/06/05 04:40:48;;;;;;;7.55;6.35;;;20.20;99.90;;;;;;5032517;28;20206;-62
2022/06/05 04:43:15;;;;;;;7.93;6.50;;;20.10;99.90;;;;;;5032265;28;20209;-61
2022/06/05 04:45:42;;;;;;;8.30;6.95;;;20.00;99.90;;;;;;5032470;28;20264;-61
2022/06/05 04:48:10;;;;;;;9.73;8.40;;;20.00;99.90;;;;;;5032230;28;20226;-61
2022/06/05 04:50:37;;;;;;;10.88;7.32;;;20.00;99.90;;;;;;5032521;28;20293;-60
2022/06/05 04:53:04;;;;;;;8.30;7.53;;;20.10;99.90;;;;;;5032292;28;20563;-61
2022/06/05 04:55:30;;;;;;;8.23;7.45;;;20.00;99.90;;;;;;5032219;28;20226;-62
2022/06/05 04:57:58;;;;;;;7.75;6.97;;;20.00;99.90;;;;;;5030920;28;20226;-61
2022/06/05 05:00:25;;;;;;;7.32;6.70;;;20.00;99.90;;;;;;5032419;28;20203;-61
2022/06/05 05:02:52;;;;;;;7.80;6.95;;;19.80;99.90;;;;;;5032168;28;20228;-61
2022/06/05 05:05:19;;;;;;;7.50;6.80;;;19.60;99.90;;;;;;5032316;28;20210;-60
2022/06/05 05:07:45;;;;;;;8.43;7.03;;;19.60;99.90;;;;;;5031892;28;20230;-61
2022/06/05 05:10:12;;;;;;;9.38;7.55;;;19.60;99.90;;;;;;5031973;28;20239;-61
2022/06/05 05:12:39;;;;;;;9.98;8.10;;;19.70;99.90;;;;;;5031862;28;20211;-60
2022/06/05 05:15:09;;;;;;;8.32;7.53;;;19.80;99.90;;;;;;5032137;28;20435;-61
2022/06/05 05:17:36;;;;;;;7.88;7.18;;;19.80;99.90;;;;;;5031728;28;20226;-61
2022/06/05 05:20:03;;;;;;;8.50;7.70;;;19.90;99.90;;;;;;5032005;28;20206;-62
2022/06/05 05:22:36;;;;;;;8.40;7.60;;;19.90;99.90;;;;;;5032070;28;20419;-61
2022/06/05 05:25:03;;;;;;;9.45;8.27;;;19.90;99.90;;;;;;5031766;28;20213;-61
2022/06/05 05:27:30;;;;;;;8.68;7.97;;;19.90;99.90;;;;;;5054475;23;20316;-61
2022/06/05 05:29:57;;;;;;;10.25;8.30;;;19.90;99.90;;;;;;5032032;28;20195;-61
2022/06/05 05:32:25;;;;;;;9.38;8.48;;;19.80;99.90;;;;;;5032264;28;20203;-62
2022/06/05 05:34:52;;;;;;;10.88;8.20;;;19.80;99.90;;;;;;5031918;28;20218;-61
2022/06/05 05:37:19;;;;;;;16.17;13.32;;;19.80;99.90;;;;;;5031579;28;20233;-61
2022/06/05 05:42:32;;;;;;;8.48;7.68;;;19.50;99.90;;;;;;5006436;28;20205;-61
2022/06/05 05:45:00;;;;;;;9.40;7.88;;;19.30;99.90;;;;;;5031682;28;20591;-61
2022/06/05 05:47:31;;;;;;;8.95;8.13;;;19.30;99.90;;;;;;5031479;28;20234;-61
2022/06/05 05:50:00;;;;;;;10.23;8.50;;;19.30;99.90;;;;;;5031593;28;20206;-61
2022/06/05 05:52:27;;;;;;;10.02;9.00;;;19.20;99.90;;;;;;5032119;28;20591;-62
2022/06/05 05:54:54;;;;;;;9.80;8.77;;;19.10;99.90;;;;;;5031615;28;20732;-62
2022/06/05 05:57:21;;;;;;;9.40;8.60;;;19.00;99.90;;;;;;5031762;28;20764;-62
2022/06/05 05:59:48;;;;;;;10.07;9.07;;;18.90;99.90;;;;;;5031683;28;20214;-62
2022/06/05 06:02:19;;;;;;;10.75;9.75;;;18.60;99.90;;;;;;5031611;28;20313;-62
2022/06/05 06:04:47;;;;;;;11.55;9.00;;;18.30;99.90;;;;;;5031645;28;20206;-62
2022/06/05 06:07:15;;;;;;;14.23;10.50;;;18.30;99.90;;;;;;5031491;28;20233;-62
2022/06/05 06:09:42;;;;;;;10.63;9.63;;;18.30;99.90;;;;;;5034631;28;20213;-62
2022/06/05 06:12:10;;;;;;;15.63;10.48;;;18.20;99.90;;;;;;5035314;28;20209;-62
2022/06/05 06:14:38;;;;;;;12.32;11.00;;;18.20;99.90;;;;;;5035222;28;20226;-62
2022/06/05 06:17:05;;;;;;;13.10;11.43;;;18.20;99.90;;;;;;5034773;28;20206;-62
2022/06/05 06:19:32;;;;;;;13.27;11.98;;;18.30;99.90;;;;;;5035248;28;20600;-62
2022/06/05 06:22:00;;;;;;;13.15;11.82;;;18.40;99.90;;;;;;5035338;28;20217;-62
2022/06/05 06:24:27;;;;;;;13.75;12.38;;;18.40;99.90;;;;;;5035134;28;20210;-62
2022/06/05 06:26:53;;;;;;;12.63;11.32;;;18.40;99.90;;;;;;5034925;28;20287;-62
2022/06/05 06:29:20;;;;;;;12.10;10.57;;;18.30;99.90;;;;;;5034941;28;20222;-62
2022/06/05 06:31:47;;;;;;;10.25;9.45;;;18.20;99.90;;;;;;5035070;28;20214;-61
2022/06/05 06:34:14;;;;;;;10.20;9.30;;;18.20;99.90;;;;;;5036203;28;20229;-63
2022/06/05 06:36:40;;;;;;;10.32;9.52;;;18.00;99.90;;;;;;5036096;28;20214;-62
2022/06/05 06:39:09;;;;;;;9.50;8.70;;;18.00;99.90;;;;;;5035121;28;20234;-62
2022/06/05 06:41:36;;;;;;;9.95;9.05;;;18.00;99.90;;;;;;5034996;28;20217;-62
2022/06/05 06:44:03;;;;;;;12.45;9.20;;;17.90;99.90;;;;;;5034707;28;20221;-62
2022/06/05 06:46:31;;;;;;;12.32;10.60;;;17.90;99.90;;;;;;5034437;28;20237;-60
2022/06/05 06:48:58;;;;;;;11.05;9.77;;;17.80;99.90;;;;;;5034747;28;20230;-60
2022/06/05 06:51:25;;;;;;;11.02;10.02;;;17.70;99.90;;;;;;5034632;28;20559;-59
2022/06/05 06:53:52;;;;;;;11.32;10.32;;;17.50;99.90;;;;;;5034502;28;20589;-60
2022/06/05 06:56:23;;;;;;;11.73;10.63;;;17.40;99.90;;;;;;5034184;28;20206;-60
2022/06/05 06:58:50;;;;;;;12.63;10.90;;;17.20;99.90;;;;;;5035047;28;20230;-61
2022/06/05 07:01:16;;;;;;;11.60;10.50;;;17.20;99.90;;;;;;5035188;28;20210;-61
2022/06/05 07:03:43;;;;;;;12.47;11.37;;;17.20;99.90;;;;;;5034513;28;20206;-61
2022/06/05 07:06:12;;;;;;;11.38;10.27;;;17.20;99.90;;;;;;5034374;28;20209;-63
2022/06/05 07:08:39;;;;;;;10.48;9.48;;;17.20;99.90;;;;;;5034211;28;20237;-61
2022/06/05 07:11:07;;;;;;;12.63;11.43;;;17.20;99.90;;;;;;5034184;28;20594;-61
2022/06/05 07:13:35;;;;;;;11.45;10.23;;;17.20;99.90;;;;;;5034405;28;20213;-66
2022/06/05 07:16:02;;;;;;;12.20;11.10;;;17.10;99.90;;;;;;5034362;28;20222;-59
2022/06/05 07:18:29;;;;;;;11.63;10.52;;;17.10;99.90;;;;;;5033907;28;20229;-59
2022/06/05 07:20:55;;;;;;;11.68;9.43;;;17.10;99.90;;;;;;5033299;28;20206;-60
2022/06/05 07:23:22;;;;;;;10.65;9.70;;;17.10;99.90;;;;;;5034364;28;20194;-60
2022/06/05 07:25:51;;;;;;;12.93;8.68;;;17.10;99.90;;;;;;5033897;28;20206;-60
2022/06/05 07:28:19;;;;;;;18.75;8.48;;;17.00;99.90;;;;;;5034299;28;20610;-59
2022/06/05 07:30:49;;;;;;;7.07;6.47;;;17.00;99.90;;;;;;5034400;28;20209;-60
2022/06/05 07:33:16;;;;;;;8.10;7.27;;;17.10;99.90;;;;;;5034364;28;20217;-59
2022/06/05 07:35:42;;;;;;;8.40;7.35;;;17.10;99.90;;;;;;5034504;28;20226;-59
2022/06/05 07:38:09;;;;;;;8.38;7.57;;;17.10;99.90;;;;;;5034033;28;20231;-59
2022/06/05 07:40:39;;;;;;;9.37;7.73;;;17.10;99.90;;;;;;5034377;28;20214;-59
2022/06/05 07:43:09;;;;;;;9.15;7.55;;;17.00;99.90;;;;;;5034249;28;20202;-59
2022/06/05 07:45:37;;;;;;;7.07;6.37;;;17.00;99.90;;;;;;5034183;28;20209;-59
2022/06/05 07:48:06;;;;;;;8.30;6.88;;;17.00;99.90;;;;;;5033585;28;20333;-59
2022/06/05 07:50:33;;;;;;;6.68;6.07;;;17.00;99.90;;;;;;5033629;28;20202;-59
2022/06/05 07:55:56;;;;;;;10.60;4.73;;;17.10;99.90;;;;;;4972457;28;20770;-59
2022/06/05 07:58:22;;;;;;;4.77;4.37;;;17.00;99.90;;;;;;5018202;28;20222;-60
2022/06/05 08:00:49;;;;;;;5.87;3.93;;;17.00;99.90;;;;;;5033155;28;20210;-60
2022/06/05 08:03:17;;;;;;;5.70;4.33;;;17.00;99.90;;;;;;5033121;28;20210;-60
2022/06/05 08:05:44;;;;;;;8.90;5.13;;;17.10;99.90;;;;;;5033399;28;20256;-60
2022/06/05 08:08:10;;;;;;;5.43;4.43;;;17.30;99.90;;;;;;5033586;28;20608;-60
2022/06/05 08:10:37;;;;;;;6.90;5.40;;;17.50;99.90;;;;;;5034071;28;20206;-60
2022/06/05 08:13:04;;;;;;;7.78;5.43;;;17.60;99.90;;;;;;5033465;28;20206;-60
2022/06/05 08:15:31;;;;;;;7.13;5.57;;;17.80;99.90;;;;;;5033503;28;20272;-60
2022/06/05 08:17:57;;;;;;;6.05;4.90;;;18.00;99.90;;;;;;5033211;28;20748;-61
2022/06/05 08:20:26;;;;;;;6.22;5.35;;;18.20;99.90;;;;;;5034808;28;20214;-60
2022/06/05 08:22:52;;;;;;;6.68;4.82;;;18.40;99.90;;;;;;5034126;28;20206;-61
2022/06/05 08:25:20;;;;;;;5.70;4.72;;;18.60;99.90;;;;;;5033630;28;20285;-60
2022/06/05 08:27:48;;;;;;;7.13;5.30;;;18.90;99.90;;;;;;5033638;28;20325;-61
2022/06/05 08:30:15;;;;;;;5.90;5.40;;;19.10;99.90;;;;;;5033802;28;20652;-60
2022/06/05 08:32:41;;;;;;;6.93;5.20;;;19.20;99.90;;;;;;5034023;28;20557;-61
2022/06/05 08:35:09;;;;;;;5.10;4.60;;;19.40;99.90;;;;;;5033560;28;20762;-61
2022/06/05 08:43:32;;;;;;;5.05;4.55;;;20.00;99.90;;;;;;5033995;28;20569;-61
2022/06/05 08:46:06;;;;;;;5.85;4.25;;;20.50;99.90;;;;;;5033669;28;20213;-61
2022/06/05 08:48:37;;;;;;;5.13;3.50;;;20.80;99.90;;;;;;5033154;28;20237;-63
2022/06/05 08:51:21;;;;;;;3.38;3.08;;;21.20;99.90;;;;;;5033389;28;20678;-61
2022/06/05 08:53:54;;;;;;;2.90;2.60;;;21.60;99.90;;;;;;5033959;28;20666;-62
2022/06/05 08:56:31;;;;;;;4.63;2.67;;;22.10;99.90;;;;;;5033565;28;20222;-62
2022/06/05 08:59:02;;;;;;;4.22;2.72;;;22.50;99.90;;;;;;5033412;28;20647;-61
2022/06/05 09:01:36;;;;;;;3.65;2.97;;;23.10;99.90;;;;;;5033421;28;20213;-61
2022/06/05 09:04:19;;;;;;;3.03;2.00;;;23.50;99.90;;;;;;5033725;28;20812;-61
2022/06/05 09:06:49;;;;;;;4.65;2.17;;;24.00;99.90;;;;;;5033359;28;20202;-62
2022/06/05 09:09:26;;;;;;;5.75;2.47;;;24.30;99.90;;;;;;5033594;28;20438;-62
2022/06/05 09:11:59;;;;;;;2.75;1.73;;;24.70;99.90;;;;;;5032912;28;20275;-62
2022/06/05 09:14:32;;;;;;;3.70;1.83;;;25.00;99.90;;;;;;5033626;28;20202;-62
2022/06/05 09:17:07;;;;;;;2.50;1.77;;;25.20;99.90;;;;;;5032747;28;20716;-62
2022/06/05 09:19:34;;;;;;;2.80;1.70;;;25.20;99.90;;;;;;5033146;28;20267;-62
2022/06/05 09:22:06;;;;;;;20.58;15.25;;;25.10;99.90;;;;;;5033734;28;20666;-62
2022/06/05 09:24:46;;;;;;;4.57;1.80;;;25.00;99.90;;;;;;5033804;28;20202;-61
2022/06/05 09:27:23;;;;;;;2.33;1.80;;;25.00;99.90;;;;;;5030538;28;20442;-60
2022/06/05 09:29:57;;;;;;;4.65;1.75;;;25.00;99.90;;;;;;5031275;28;20217;-66
2022/06/05 09:32:41;;;;;;;1.98;1.65;;;24.80;99.90;;;;;;5034167;28;20206;-61
2022/06/05 09:35:21;;;;;;;3.30;1.85;;;24.50;99.90;;;;;;5032266;28;20226;-61
2022/06/05 09:37:52;;;;;;;2.75;1.70;;;24.50;99.90;;;;;;5032261;28;20221;-62
2022/06/05 09:40:27;;;;;;;5.65;1.80;;;24.30;99.90;;;;;;5033210;28;20237;-62
2022/06/05 09:43:09;;;;;;;2.47;1.50;;;24.10;99.90;;;;;;5033297;28;20680;-62
2022/06/05 09:45:47;;;;;;;3.95;2.00;;;24.20;99.90;;;;;;5036891;28;20681;-63
2022/06/05 09:48:24;;;;;;;3.38;1.55;;;24.30;99.90;;;;;;5036491;28;20256;-62
2022/06/05 09:50:52;;;;;;;2.67;1.70;;;24.30;99.90;;;;;;5036535;28;20209;-60
2022/06/05 09:53:24;;;;;;;2.70;1.70;;;24.40;99.90;;;;;;5036409;28;20206;-61
2022/06/05 09:56:03;;;;;;;3.72;1.67;;;24.70;99.90;;;;;;5036473;28;20222;-61
2022/06/05 09:58:47;;;;;;;3.47;1.55;;;25.00;99.90;;;;;;5036505;28;20230;-62
2022/06/05 10:01:28;;;;;;;3.85;2.10;;;25.40;99.90;;;;;;5037495;28;20213;-62
2022/06/05 10:03:56;;;;;;;1.45;1.35;;;25.90;99.90;;;;;;5037723;28;20209;-62
2022/06/05 10:06:28;;;;;;;3.30;1.60;;;26.30;99.90;;;;;;5037429;28;20700;-61
2022/06/05 10:09:03;;;;;;;3.50;1.58;;;26.30;99.90;;;;;;5036994;28;20230;-62
2022/06/05 10:11:40;;;;;;;4.40;1.67;;;26.00;99.90;;;;;;5037927;28;20209;-62
2022/06/05 10:14:21;;;;;;;3.45;1.33;;;26.00;99.90;;;;;;5039018;28;20213;-62
2022/06/05 10:16:53;;;;;;;3.70;1.40;;;26.00;99.90;;;;;;5038229;28;20218;-63
2022/06/05 10:19:35;;;;;;;2.78;1.48;;;25.90;99.90;;;;;;5037896;28;20210;-62
2022/06/05 10:22:09;;;;;;;2.03;1.15;;;25.80;99.90;;;;;;5038116;28;20731;-64
2022/06/05 10:24:46;;;;;;;3.22;1.27;;;25.90;99.90;;;;;;5036856;28;20206;-64
2022/06/05 10:27:16;;;;;;;4.53;1.58;;;26.00;99.90;;;;;;5037409;28;20229;-62
2022/06/05 10:29:48;;;;;;;4.00;1.17;;;26.20;99.90;;;;;;5038734;28;20210;-63
2022/06/05 10:32:21;;;;;;;3.05;1.70;;;26.30;99.90;;;;;;5038202;28;20264;-62
2022/06/05 10:34:55;;;;;;;2.25;1.30;;;26.50;99.90;;;;;;5037177;28;20581;-61
2022/06/05 10:37:27;;;;;;;3.20;1.60;;;26.80;99.90;;;;;;5036259;28;20225;-62
2022/06/05 10:40:04;;;;;;;3.97;1.60;;;27.10;99.90;;;;;;5036955;28;20221;-62
2022/06/05 10:42:39;;;;;;;1.83;1.20;;;27.30;99.90;;;;;;5036689;28;20221;-62
2022/06/05 10:45:30;;;;;;;2.13;1.38;;;27.40;99.90;;;;;;5025554;28;20202;-63
2022/06/05 10:48:33;;;;;;;2.28;1.20;;;27.60;99.90;;;;;;5036344;28;20233;-62
2022/06/05 10:51:05;;;;;;;3.53;1.50;;;27.60;99.90;;;;;;5034365;28;20268;-64
2022/06/05 10:53:39;;;;;;;4.30;1.55;;;27.50;99.90;;;;;;5034236;28;20203;-64
2022/06/05 10:56:17;;;;;;;3.03;1.40;;;27.30;99.90;;;;;;5033195;28;20224;-62
2022/06/05 10:58:52;;;;;;;4.18;1.30;;;27.20;99.90;;;;;;5033519;28;20230;-63
2022/06/05 11:01:35;;;;;;;3.72;1.40;;;27.10;99.90;;;;;;5035902;28;20260;-64
2022/06/05 11:04:10;;;;;;;2.80;1.35;;;26.70;99.90;;;;;;5034973;28;20198;-60
2022/06/05 11:06:43;;;;;;;3.90;1.45;;;26.20;99.90;;;;;;5034640;28;20206;-60
2022/06/05 11:09:28;;;;;;;2.75;1.20;;;25.70;99.90;;;;;;5035943;28;20226;-60
2022/06/05 11:15:00;;;;;;;3.38;1.60;;;24.90;99.90;;;;;;5034199;28;20205;-59
2022/06/05 11:17:34;;;;;;;3.47;1.40;;;24.40;99.90;;;;;;5034473;28;20230;-59
2022/06/05 11:20:09;;;;;;;3.22;1.60;;;24.20;99.90;;;;;;5035169;28;20229;-64
2022/06/05 11:22:38;;;;;;;4.55;1.45;;;24.00;99.90;;;;;;5038174;28;20212;-64
2022/06/05 11:25:21;;;;;;;9.05;5.88;;;23.70;99.90;;;;;;5036561;28;20209;-65
2022/06/05 11:27:59;;;;;;;3.97;1.40;;;23.40;99.90;;;;;;5048682;23;20647;-59
2022/06/05 11:30:34;;;;;;;5.80;1.70;;;23.10;99.90;;;;;;5032407;28;20660;-61
2022/06/05 11:33:10;;;;;;;4.32;1.95;;;23.00;99.90;;;;;;5032793;28;20213;-60
2022/06/05 11:35:54;;;;;;;4.20;1.63;;;22.80;99.90;;;;;;5032600;28;20229;-60
2022/06/05 11:38:28;;;;;;;3.47;1.60;;;22.60;99.90;;;;;;5031234;28;20296;-61
2022/06/05 11:41:01;;;;;;;2.67;1.60;;;22.50;99.90;;;;;;5032499;28;20705;-59
2022/06/05 11:43:33;;;;;;;4.15;2.10;;;22.40;99.90;;;;;;5032890;28;20263;-58
2022/06/05 11:46:12;;;;;;;2.35;1.58;;;22.30;99.90;;;;;;5032674;28;20207;-60
2022/06/05 11:48:43;;;;;;;5.35;1.70;;;22.20;99.90;;;;;;5032233;28;20249;-61
2022/06/05 11:51:21;;;;;;;4.60;1.65;;;22.10;99.90;;;;;;5032039;28;20637;-60
2022/06/05 11:54:00;;;;;;;5.35;3.30;;;22.10;99.90;;;;;;5032393;28;20483;-60
2022/06/05 11:56:38;;;;;;;3.78;2.22;;;22.20;99.90;;;;;;5032251;28;20875;-60
2022/06/05 11:59:17;;;;;;;5.32;2.10;;;22.40;99.90;;;;;;5032171;28;20253;-60
2022/06/05 12:01:56;;;;;;;5.13;1.80;;;22.50;99.90;;;;;;5031108;28;20214;-63
2022/06/05 12:04:44;;;;;;;3.80;1.80;;;22.80;99.90;;;;;;5031295;28;20209;-62
2022/06/05 12:07:14;;;;;;;5.70;1.65;;;23.10;99.90;;;;;;5031653;28;20202;-61
2022/06/05 12:09:46;;;;;;;3.47;1.80;;;23.40;99.90;;;;;;5030633;28;20878;-62
2022/06/05 12:12:20;;;;;;;2.65;1.60;;;23.60;99.90;;;;;;5031527;28;20297;-60
2022/06/05 12:14:53;;;;;;;2.88;1.80;;;23.90;99.90;;;;;;5030879;28;20202;-64
2022/06/05 12:17:29;;;;;;;4.55;1.70;;;24.20;99.90;;;;;;5031753;28;20249;-63
2022/06/05 12:20:01;;;;;;;2.78;1.60;;;24.60;99.90;;;;;;5032378;28;20430;-60
2022/06/05 12:22:35;;;;;;;5.85;2.40;;;24.90;99.90;;;;;;5032556;28;20210;-60
2022/06/05 12:25:11;;;;;;;2.30;1.48;;;25.30;99.90;;;;;;5032213;28;20214;-59
2022/06/05 12:27:52;;;;;;;2.28;1.40;;;25.60;99.90;;;;;;5030913;28;20728;-59
2022/06/05 12:30:24;;;;;;;2.95;1.27;;;25.80;99.90;;;;;;5030731;28;20573;-61
2022/06/05 12:32:58;;;;;;;4.95;1.55;;;26.00;99.90;;;;;;5031454;28;20568;-61
2022/06/05 12:35:28;;;;;;;2.78;1.55;;;26.00;99.90;;;;;;5031848;28;20680;-61
2022/06/05 12:38:14;;;;;;;2.13;1.48;;;26.30;99.90;;;;;;5031100;28;20230;-59
2022/06/05 12:40:50;;;;;;;3.05;1.38;;;26.80;99.90;;;;;;5031251;28;20206;-61
2022/06/05 12:43:25;;;;;;;3.55;1.10;;;27.30;99.90;;;;;;5031544;28;20220;-62
2022/06/05 12:45:58;;;;;;;2.90;0.93;;;27.50;99.90;;;;;;5031456;28;20421;-61
2022/06/05 12:48:30;;;;;;;5.38;3.65;;;27.70;99.90;;;;;;5030982;28;20276;-63
2022/06/05 12:51:02;;;;;;;1.80;1.20;;;27.80;99.90;;;;;;5031013;28;20611;-62
2022/06/05 12:53:40;;;;;;;3.42;1.20;;;28.00;99.90;;;;;;5031229;28;20592;-61
2022/06/05 12:56:28;;;;;;;2.83;1.25;;;28.10;99.90;;;;;;5031142;28;20253;-64
2022/06/05 12:59:01;;;;;;;3.53;1.30;;;27.70;99.90;;;;;;5031360;28;20226;-60
2022/06/05 13:01:34;;;;;;;1.67;1.20;;;27.70;99.90;;;;;;5032003;28;20199;-60
2022/06/05 13:04:13;;;;;;;4.50;1.00;;;27.70;99.90;;;;;;5031986;28;20206;-59
2022/06/05 13:06:48;;;;;;;3.38;1.17;;;27.70;99.90;;;;;;5031691;28;20293;-60
2022/06/05 13:09:21;;;;;;;1.42;0.88;;;27.70;99.90;;;;;;5031751;28;20606;-60
2022/06/05 13:11:54;;;;;;;1.83;1.17;;;27.70;99.90;;;;;;5032067;28;20247;-60
2022/06/05 13:14:34;;;;;;;2.75;1.02;;;27.70;99.90;;;;;;5032011;28;20292;-60
2022/06/05 13:17:11;;;;;;;2.92;1.00;;;27.80;99.90;;;;;;5031543;28;20287;-60
2022/06/05 13:19:45;;;;;;;4.70;1.45;;;27.90;99.90;;;;;;5031080;28;20230;-59
2022/06/05 13:22:17;;;;;;;4.18;1.65;;;27.90;99.90;;;;;;5031733;28;20214;-59
2022/06/05 13:24:53;;;;;;;2.65;1.30;;;27.80;99.90;;;;;;5031975;28;20210;-59